sensor_id;sensor_type;location;lat;lon;timestamp;temperature;humidity
80212;DHT22;70434;37.956;23.722;2023-11-19T00:00:50;13.70;33.30
80212;DHT22;70434;37.956;23.722;2023-11-19T00:03:17;13.60;33.50
80212;DHT22;70434;37.956;23.722;2023-11-19T00:05:43;13.50;33.90
80212;DHT22;70434;37.956;23.722;2023-11-19T00:08:10;13.50;34.10
80212;DHT22;70434;37.956;23.722;2023-11-19T00:10:35;13.40;33.90
80212;DHT22;70434;37.956;23.722;2023-11-19T00:13:01;13.20;34.10
80212;DHT22;70434;37.956;23.722;2023-11-19T00:15:28;12.70;35.10
80212;DHT22;70434;37.956;23.722;2023-11-19T00:17:54;12.90;35.40
80212;DHT22;70434;37.956;23.722;2023-11-19T00:20:20;12.80;35.40
80212;DHT22;70434;37.956;23.722;2023-11-19T00:22:49;12.70;34.80
80212;DHT22;70434;37.956;23.722;2023-11-19T00:25:19;12.80;35.30
80212;DHT22;70434;37.956;23.722;2023-11-19T00:27:45;13.00;34.50
80212;DHT22;70434;37.956;23.722;2023-11-19T00:30:11;13.00;33.50
80212;DHT22;70434;37.956;23.722;2023-11-19T00:32:39;12.80;34.90
80212;DHT22;70434;37.956;23.722;2023-11-19T00:35:08;12.80;34.20
80212;DHT22;70434;37.956;23.722;2023-11-19T00:37:35;12.90;33.60
80212;DHT22;70434;37.956;23.722;2023-11-19T00:40:01;12.90;33.70
80212;DHT22;70434;37.956;23.722;2023-11-19T00:42:30;13.00;32.80
80212;DHT22;70434;37.956;23.722;2023-11-19T00:44:56;12.90;32.70
80212;DHT22;70434;37.956;23.722;2023-11-19T00:47:23;12.90;31.80
80212;DHT22;70434;37.956;23.722;2023-11-19T00:49:49;12.90;31.00
80212;DHT22;70434;37.956;23.722;2023-11-19T00:52:16;12.80;30.90
80212;DHT22;70434;37.956;23.722;2023-11-19T00:54:42;12.90;30.40
80212;DHT22;70434;37.956;23.722;2023-11-19T00:57:08;12.70;30.00
80212;DHT22;70434;37.956;23.722;2023-11-19T00:59:33;12.70;30.50
80212;DHT22;70434;37.956;23.722;2023-11-19T01:01:59;12.70;30.80
80212;DHT22;70434;37.956;23.722;2023-11-19T01:04:29;12.70;30.70
80212;DHT22;70434;37.956;23.722;2023-11-19T01:06:55;12.70;31.30
80212;DHT22;70434;37.956;23.722;2023-11-19T01:09:21;12.80;31.10
80212;DHT22;70434;37.956;23.722;2023-11-19T01:11:47;12.70;31.10
80212;DHT22;70434;37.956;23.722;2023-11-19T01:14:12;12.60;31.50
80212;DHT22;70434;37.956;23.722;2023-11-19T01:16:38;12.50;31.90
80212;DHT22;70434;37.956;23.722;2023-11-19T01:19:04;12.50;32.10
80212;DHT22;70434;37.956;23.722;2023-11-19T01:21:30;12.60;32.40
80212;DHT22;70434;37.956;23.722;2023-11-19T01:23:57;12.70;31.80
80212;DHT22;70434;37.956;23.722;2023-11-19T01:26:24;12.60;32.00
80212;DHT22;70434;37.956;23.722;2023-11-19T01:28:49;12.50;32.50
80212;DHT22;70434;37.956;23.722;2023-11-19T01:31:18;12.50;33.30
80212;DHT22;70434;37.956;23.722;2023-11-19T01:33:44;12.60;33.10
80212;DHT22;70434;37.956;23.722;2023-11-19T01:36:13;12.70;33.00
80212;DHT22;70434;37.956;23.722;2023-11-19T01:38:39;12.70;33.00
80212;DHT22;70434;37.956;23.722;2023-11-19T01:41:04;12.60;33.00
80212;DHT22;70434;37.956;23.722;2023-11-19T01:43:35;12.40;33.60
80212;DHT22;70434;37.956;23.722;2023-11-19T01:46:02;12.40;33.50
80212;DHT22;70434;37.956;23.722;2023-11-19T01:48:29;12.40;33.80
80212;DHT22;70434;37.956;23.722;2023-11-19T01:50:56;12.40;33.70
80212;DHT22;70434;37.956;23.722;2023-11-19T01:53:23;12.50;33.50
80212;DHT22;70434;37.956;23.722;2023-11-19T01:55:49;12.30;33.40
80212;DHT22;70434;37.956;23.722;2023-11-19T01:58:16;12.20;33.40
80212;DHT22;70434;37.956;23.722;2023-11-19T02:00:43;12.20;33.60
80212;DHT22;70434;37.956;23.722;2023-11-19T02:03:09;12.40;32.50
80212;DHT22;70434;37.956;23.722;2023-11-19T02:05:36;12.30;32.30
80212;DHT22;70434;37.956;23.722;2023-11-19T02:08:02;12.20;32.30
80212;DHT22;70434;37.956;23.722;2023-11-19T02:10:28;12.30;31.70
80212;DHT22;70434;37.956;23.722;2023-11-19T02:12:54;12.40;31.40
80212;DHT22;70434;37.956;23.722;2023-11-19T02:15:20;12.50;30.80
80212;DHT22;70434;37.956;23.722;2023-11-19T02:17:50;12.30;31.00
80212;DHT22;70434;37.956;23.722;2023-11-19T02:20:17;12.30;31.00
80212;DHT22;70434;37.956;23.722;2023-11-19T02:22:48;12.20;32.00
80212;DHT22;70434;37.956;23.722;2023-11-19T02:25:35;12.10;31.60
80212;DHT22;70434;37.956;23.722;2023-11-19T02:28:02;12.20;32.20
80212;DHT22;70434;37.956;23.722;2023-11-19T02:30:29;12.30;31.80
80212;DHT22;70434;37.956;23.722;2023-11-19T02:32:56;12.30;31.60
80212;DHT22;70434;37.956;23.722;2023-11-19T02:35:23;12.20;32.10
80212;DHT22;70434;37.956;23.722;2023-11-19T02:37:49;12.10;32.00
80212;DHT22;70434;37.956;23.722;2023-11-19T02:40:15;12.20;32.10
80212;DHT22;70434;37.956;23.722;2023-11-19T02:42:41;12.30;32.20
80212;DHT22;70434;37.956;23.722;2023-11-19T02:45:08;12.00;31.80
80212;DHT22;70434;37.956;23.722;2023-11-19T02:47:42;12.10;32.20
80212;DHT22;70434;37.956;23.722;2023-11-19T02:50:11;12.10;32.40
80212;DHT22;70434;37.956;23.722;2023-11-19T02:52:46;12.00;32.60
80212;DHT22;70434;37.956;23.722;2023-11-19T02:55:12;11.80;32.60
80212;DHT22;70434;37.956;23.722;2023-11-19T02:57:42;11.90;32.90
80212;DHT22;70434;37.956;23.722;2023-11-19T03:00:21;12.00;32.20
80212;DHT22;70434;37.956;23.722;2023-11-19T03:02:57;11.90;31.50
80212;DHT22;70434;37.956;23.722;2023-11-19T03:05:35;11.70;32.60
80212;DHT22;70434;37.956;23.722;2023-11-19T03:08:01;11.70;32.10
80212;DHT22;70434;37.956;23.722;2023-11-19T03:10:28;11.70;32.20
80212;DHT22;70434;37.956;23.722;2023-11-19T03:12:54;11.90;32.40
80212;DHT22;70434;37.956;23.722;2023-11-19T03:15:22;12.00;32.30
80212;DHT22;70434;37.956;23.722;2023-11-19T03:17:48;12.10;32.20
80212;DHT22;70434;37.956;23.722;2023-11-19T03:20:14;12.00;32.40
80212;DHT22;70434;37.956;23.722;2023-11-19T03:22:43;12.00;32.20
80212;DHT22;70434;37.956;23.722;2023-11-19T03:25:09;12.10;33.10
80212;DHT22;70434;37.956;23.722;2023-11-19T03:27:39;12.20;32.10
80212;DHT22;70434;37.956;23.722;2023-11-19T03:30:07;12.00;32.10
80212;DHT22;70434;37.956;23.722;2023-11-19T03:32:35;11.70;32.90
80212;DHT22;70434;37.956;23.722;2023-11-19T03:35:02;11.60;32.30
80212;DHT22;70434;37.956;23.722;2023-11-19T03:37:29;11.70;32.60
80212;DHT22;70434;37.956;23.722;2023-11-19T03:39:56;11.90;32.40
80212;DHT22;70434;37.956;23.722;2023-11-19T03:42:25;12.20;31.60
80212;DHT22;70434;37.956;23.722;2023-11-19T03:44:52;12.30;31.30
80212;DHT22;70434;37.956;23.722;2023-11-19T03:47:19;12.20;31.60
80212;DHT22;70434;37.956;23.722;2023-11-19T03:49:51;12.30;31.70
80212;DHT22;70434;37.956;23.722;2023-11-19T03:52:18;12.40;31.70
80212;DHT22;70434;37.956;23.722;2023-11-19T03:54:44;12.60;31.00
80212;DHT22;70434;37.956;23.722;2023-11-19T03:57:14;12.50;31.00
80212;DHT22;70434;37.956;23.722;2023-11-19T03:59:41;12.40;31.60
80212;DHT22;70434;37.956;23.722;2023-11-19T04:02:07;12.30;31.70
80212;DHT22;70434;37.956;23.722;2023-11-19T04:04:33;12.40;32.00
80212;DHT22;70434;37.956;23.722;2023-11-19T04:07:00;12.40;31.50
80212;DHT22;70434;37.956;23.722;2023-11-19T04:09:26;12.10;31.80
80212;DHT22;70434;37.956;23.722;2023-11-19T07:00:07;11.60;35.90
80212;DHT22;70434;37.956;23.722;2023-11-19T07:02:34;11.70;35.30
80212;DHT22;70434;37.956;23.722;2023-11-19T07:04:59;11.70;35.60
80212;DHT22;70434;37.956;23.722;2023-11-19T07:07:25;11.70;35.40
80212;DHT22;70434;37.956;23.722;2023-11-19T07:09:52;11.70;35.70
80212;DHT22;70434;37.956;23.722;2023-11-19T07:12:17;11.80;35.70
80212;DHT22;70434;37.956;23.722;2023-11-19T07:14:43;12.00;35.70
80212;DHT22;70434;37.956;23.722;2023-11-19T07:17:09;12.20;34.70
80212;DHT22;70434;37.956;23.722;2023-11-19T07:19:35;12.00;35.50
80212;DHT22;70434;37.956;23.722;2023-11-19T07:22:03;12.00;36.00
80212;DHT22;70434;37.956;23.722;2023-11-19T07:24:29;12.20;35.90
80212;DHT22;70434;37.956;23.722;2023-11-19T07:26:55;12.30;35.80
80212;DHT22;70434;37.956;23.722;2023-11-19T07:29:20;12.40;36.40
80212;DHT22;70434;37.956;23.722;2023-11-19T07:31:49;12.50;36.40
80212;DHT22;70434;37.956;23.722;2023-11-19T07:34:15;12.60;35.80
80212;DHT22;70434;37.956;23.722;2023-11-19T07:36:41;12.80;35.20
80212;DHT22;70434;37.956;23.722;2023-11-19T07:39:06;12.70;35.30
80212;DHT22;70434;37.956;23.722;2023-11-19T07:41:33;12.70;35.50
80212;DHT22;70434;37.956;23.722;2023-11-19T07:44:00;12.80;36.10
80212;DHT22;70434;37.956;23.722;2023-11-19T07:46:26;12.60;37.00
80212;DHT22;70434;37.956;23.722;2023-11-19T07:48:52;12.50;36.50
80212;DHT22;70434;37.956;23.722;2023-11-19T07:51:18;12.70;36.50
80212;DHT22;70434;37.956;23.722;2023-11-19T07:53:44;12.80;36.60
80212;DHT22;70434;37.956;23.722;2023-11-19T07:56:10;12.90;36.60
80212;DHT22;70434;37.956;23.722;2023-11-19T07:58:36;13.10;35.70
80212;DHT22;70434;37.956;23.722;2023-11-19T08:01:05;12.90;36.70
80212;DHT22;70434;37.956;23.722;2023-11-19T08:03:31;13.00;36.50
80212;DHT22;70434;37.956;23.722;2023-11-19T08:05:59;13.00;36.30
80212;DHT22;70434;37.956;23.722;2023-11-19T08:08:26;13.10;36.20
80212;DHT22;70434;37.956;23.722;2023-11-19T08:10:52;12.80;36.40
80212;DHT22;70434;37.956;23.722;2023-11-19T08:13:19;12.90;36.70
80212;DHT22;70434;37.956;23.722;2023-11-19T08:15:45;13.10;36.40
80212;DHT22;70434;37.956;23.722;2023-11-19T08:18:12;13.30;36.30
80212;DHT22;70434;37.956;23.722;2023-11-19T08:20:38;13.30;35.20
80212;DHT22;70434;37.956;23.722;2023-11-19T08:23:04;13.10;35.50
80212;DHT22;70434;37.956;23.722;2023-11-19T08:25:30;12.80;36.10
80212;DHT22;70434;37.956;23.722;2023-11-19T08:27:59;12.90;36.40
80212;DHT22;70434;37.956;23.722;2023-11-19T08:30:24;12.90;36.90
80212;DHT22;70434;37.956;23.722;2023-11-19T08:32:50;12.90;35.90
80212;DHT22;70434;37.956;23.722;2023-11-19T08:35:16;12.80;36.10
80212;DHT22;70434;37.956;23.722;2023-11-19T08:37:42;12.90;36.10
80212;DHT22;70434;37.956;23.722;2023-11-19T08:40:09;13.00;36.50
80212;DHT22;70434;37.956;23.722;2023-11-19T08:42:35;13.20;36.00
80212;DHT22;70434;37.956;23.722;2023-11-19T08:45:00;13.30;35.70
80212;DHT22;70434;37.956;23.722;2023-11-19T08:47:26;13.20;36.40
80212;DHT22;70434;37.956;23.722;2023-11-19T08:49:52;13.20;36.90
80212;DHT22;70434;37.956;23.722;2023-11-19T08:52:18;13.30;37.00
80212;DHT22;70434;37.956;23.722;2023-11-19T08:54:44;13.50;36.50
80212;DHT22;70434;37.956;23.722;2023-11-19T08:57:09;13.60;36.70
80212;DHT22;70434;37.956;23.722;2023-11-19T08:59:36;13.70;36.60
80212;DHT22;70434;37.956;23.722;2023-11-19T09:02:04;13.70;36.20
80212;DHT22;70434;37.956;23.722;2023-11-19T09:04:30;13.70;36.00
80212;DHT22;70434;37.956;23.722;2023-11-19T09:06:57;13.80;36.50
80212;DHT22;70434;37.956;23.722;2023-11-19T09:09:23;13.80;36.20
80212;DHT22;70434;37.956;23.722;2023-11-19T09:11:49;13.70;35.90
80212;DHT22;70434;37.956;23.722;2023-11-19T09:14:15;13.70;36.70
80212;DHT22;70434;37.956;23.722;2023-11-19T09:16:41;13.60;37.60
80212;DHT22;70434;37.956;23.722;2023-11-19T09:19:06;13.60;37.40
80212;DHT22;70434;37.956;23.722;2023-11-19T09:21:32;13.70;36.60
80212;DHT22;70434;37.956;23.722;2023-11-19T09:24:00;13.70;37.70
80212;DHT22;70434;37.956;23.722;2023-11-19T09:26:25;13.70;36.90
80212;DHT22;70434;37.956;23.722;2023-11-19T09:28:51;13.80;36.50
80212;DHT22;70434;37.956;23.722;2023-11-19T09:31:17;13.80;36.30
80212;DHT22;70434;37.956;23.722;2023-11-19T09:33:44;13.80;36.50
80212;DHT22;70434;37.956;23.722;2023-11-19T09:36:12;13.80;36.40
80212;DHT22;70434;37.956;23.722;2023-11-19T09:38:39;13.90;36.20
80212;DHT22;70434;37.956;23.722;2023-11-19T09:41:06;13.90;36.10
80212;DHT22;70434;37.956;23.722;2023-11-19T09:43:35;13.90;36.30
80212;DHT22;70434;37.956;23.722;2023-11-19T09:46:09;14.00;36.10
80212;DHT22;70434;37.956;23.722;2023-11-19T09:48:37;14.10;35.70
80212;DHT22;70434;37.956;23.722;2023-11-19T09:51:07;14.00;36.00
80212;DHT22;70434;37.956;23.722;2023-11-19T09:53:34;14.20;35.90
80212;DHT22;70434;37.956;23.722;2023-11-19T09:56:04;14.20;35.40
80212;DHT22;70434;37.956;23.722;2023-11-19T09:58:31;14.30;35.30
80212;DHT22;70434;37.956;23.722;2023-11-19T10:00:57;14.30;35.20
80212;DHT22;70434;37.956;23.722;2023-11-19T10:03:33;14.10;35.50
80212;DHT22;70434;37.956;23.722;2023-11-19T10:06:01;14.00;35.50
80212;DHT22;70434;37.956;23.722;2023-11-19T10:08:26;13.90;35.70
80212;DHT22;70434;37.956;23.722;2023-11-19T10:10:52;14.00;35.70
80212;DHT22;70434;37.956;23.722;2023-11-19T10:13:18;14.10;35.60
80212;DHT22;70434;37.956;23.722;2023-11-19T10:15:44;14.20;35.40
80212;DHT22;70434;37.956;23.722;2023-11-19T10:18:10;14.30;35.50
80212;DHT22;70434;37.956;23.722;2023-11-19T10:20:41;14.50;35.20
80212;DHT22;70434;37.956;23.722;2023-11-19T10:23:07;14.80;34.70
80212;DHT22;70434;37.956;23.722;2023-11-19T10:25:33;14.80;34.10
80212;DHT22;70434;37.956;23.722;2023-11-19T10:27:59;14.70;34.20
80212;DHT22;70434;37.956;23.722;2023-11-19T10:30:30;14.70;34.30
80212;DHT22;70434;37.956;23.722;2023-11-19T10:33:11;14.70;34.60
80212;DHT22;70434;37.956;23.722;2023-11-19T10:35:55;14.70;34.60
80212;DHT22;70434;37.956;23.722;2023-11-19T10:38:27;14.80;34.80
80212;DHT22;70434;37.956;23.722;2023-11-19T10:40:53;14.80;34.30
80212;DHT22;70434;37.956;23.722;2023-11-19T10:43:22;14.90;34.00
80212;DHT22;70434;37.956;23.722;2023-11-19T10:45:49;15.00;34.30
80212;DHT22;70434;37.956;23.722;2023-11-19T10:48:15;15.00;33.40
80212;DHT22;70434;37.956;23.722;2023-11-19T10:50:42;14.90;33.50
80212;DHT22;70434;37.956;23.722;2023-11-19T10:53:11;14.80;33.80
80212;DHT22;70434;37.956;23.722;2023-11-19T10:55:39;14.80;34.30
80212;DHT22;70434;37.956;23.722;2023-11-19T10:58:06;14.80;34.10
80212;DHT22;70434;37.956;23.722;2023-11-19T11:03:20;15.10;33.90
80212;DHT22;70434;37.956;23.722;2023-11-19T11:05:47;15.20;33.60
80212;DHT22;70434;37.956;23.722;2023-11-19T11:08:13;15.10;33.60
80212;DHT22;70434;37.956;23.722;2023-11-19T11:10:44;14.90;33.30
80212;DHT22;70434;37.956;23.722;2023-11-19T11:13:10;14.80;33.30
80212;DHT22;70434;37.956;23.722;2023-11-19T11:15:37;14.70;33.50
80212;DHT22;70434;37.956;23.722;2023-11-19T11:18:07;14.50;33.80
80212;DHT22;70434;37.956;23.722;2023-11-19T11:20:33;14.50;34.30
80212;DHT22;70434;37.956;23.722;2023-11-19T11:28:37;15.00;33.90
80212;DHT22;70434;37.956;23.722;2023-11-19T11:31:08;15.30;33.20
80212;DHT22;70434;37.956;23.722;2023-11-19T11:33:55;15.40;32.50
80212;DHT22;70434;37.956;23.722;2023-11-19T11:36:24;15.60;32.40
80212;DHT22;70434;37.956;23.722;2023-11-19T11:38:51;15.80;32.50
80212;DHT22;70434;37.956;23.722;2023-11-19T11:41:21;15.90;32.20
80212;DHT22;70434;37.956;23.722;2023-11-19T11:43:54;15.80;31.60
80212;DHT22;70434;37.956;23.722;2023-11-19T11:49:07;15.90;32.10
80212;DHT22;70434;37.956;23.722;2023-11-19T11:54:32;16.20;31.10
80212;DHT22;70434;37.956;23.722;2023-11-19T11:57:13;16.20;31.80
80212;DHT22;70434;37.956;23.722;2023-11-19T12:02:25;16.20;31.70
80212;DHT22;70434;37.956;23.722;2023-11-19T12:04:52;16.30;31.60
80212;DHT22;70434;37.956;23.722;2023-11-19T12:07:22;16.40;30.40
80212;DHT22;70434;37.956;23.722;2023-11-19T12:09:57;16.50;29.80
80212;DHT22;70434;37.956;23.722;2023-11-19T12:12:33;16.50;29.90
80212;DHT22;70434;37.956;23.722;2023-11-19T12:15:04;16.60;30.40
80212;DHT22;70434;37.956;23.722;2023-11-19T12:20:06;17.00;29.80
80212;DHT22;70434;37.956;23.722;2023-11-19T12:22:44;17.10;29.30
80212;DHT22;70434;37.956;23.722;2023-11-19T12:25:11;17.20;29.20
80212;DHT22;70434;37.956;23.722;2023-11-19T12:27:40;17.30;28.80
80212;DHT22;70434;37.956;23.722;2023-11-19T12:30:07;17.30;29.00
80212;DHT22;70434;37.956;23.722;2023-11-19T12:32:41;17.30;29.00
80212;DHT22;70434;37.956;23.722;2023-11-19T12:35:07;17.30;28.90
80212;DHT22;70434;37.956;23.722;2023-11-19T12:37:40;17.20;28.80
80212;DHT22;70434;37.956;23.722;2023-11-19T12:40:14;17.00;28.20
80212;DHT22;70434;37.956;23.722;2023-11-19T12:42:41;16.80;28.60
80212;DHT22;70434;37.956;23.722;2023-11-19T12:45:07;16.90;28.70
80212;DHT22;70434;37.956;23.722;2023-11-19T12:47:36;17.00;29.10
80212;DHT22;70434;37.956;23.722;2023-11-19T12:50:02;17.00;28.40
80212;DHT22;70434;37.956;23.722;2023-11-19T12:52:30;16.90;28.50
80212;DHT22;70434;37.956;23.722;2023-11-19T12:54:55;17.10;28.80
80212;DHT22;70434;37.956;23.722;2023-11-19T12:57:38;17.30;28.30
80212;DHT22;70434;37.956;23.722;2023-11-19T13:00:04;17.10;28.50
80212;DHT22;70434;37.956;23.722;2023-11-19T13:05:25;16.90;28.40
80212;DHT22;70434;37.956;23.722;2023-11-19T13:10:27;16.60;28.00
80212;DHT22;70434;37.956;23.722;2023-11-19T13:13:04;16.60;28.20
80212;DHT22;70434;37.956;23.722;2023-11-19T13:15:30;16.80;28.10
80212;DHT22;70434;37.956;23.722;2023-11-19T13:17:56;17.00;27.40
80212;DHT22;70434;37.956;23.722;2023-11-19T13:20:22;17.20;27.10
80212;DHT22;70434;37.956;23.722;2023-11-19T13:22:58;17.10;27.20
80212;DHT22;70434;37.956;23.722;2023-11-19T13:25:25;17.10;27.00
80212;DHT22;70434;37.956;23.722;2023-11-19T13:27:51;17.30;27.10
80212;DHT22;70434;37.956;23.722;2023-11-19T13:30:17;17.50;27.10
80212;DHT22;70434;37.956;23.722;2023-11-19T13:32:44;17.80;27.00
80212;DHT22;70434;37.956;23.722;2023-11-19T13:35:13;17.90;26.60
80212;DHT22;70434;37.956;23.722;2023-11-19T13:37:39;18.00;26.60
80212;DHT22;70434;37.956;23.722;2023-11-19T13:40:08;18.00;26.40
80212;DHT22;70434;37.956;23.722;2023-11-19T13:42:42;18.10;26.50
80212;DHT22;70434;37.956;23.722;2023-11-19T13:45:12;18.10;26.50
80212;DHT22;70434;37.956;23.722;2023-11-19T13:47:40;18.10;26.60
80212;DHT22;70434;37.956;23.722;2023-11-19T13:50:10;18.20;27.20
80212;DHT22;70434;37.956;23.722;2023-11-19T13:52:37;18.10;26.10
80212;DHT22;70434;37.956;23.722;2023-11-19T13:55:05;18.00;26.10
80212;DHT22;70434;37.956;23.722;2023-11-19T13:57:32;18.00;26.10
80212;DHT22;70434;37.956;23.722;2023-11-19T13:59:57;18.10;26.30
80212;DHT22;70434;37.956;23.722;2023-11-19T14:02:23;18.30;26.10
80212;DHT22;70434;37.956;23.722;2023-11-19T14:04:49;18.30;26.00
80212;DHT22;70434;37.956;23.722;2023-11-19T14:07:15;17.90;26.30
80212;DHT22;70434;37.956;23.722;2023-11-19T14:09:42;17.80;26.50
80212;DHT22;70434;37.956;23.722;2023-11-19T14:12:08;17.90;26.10
80212;DHT22;70434;37.956;23.722;2023-11-19T14:14:35;18.00;25.90
80212;DHT22;70434;37.956;23.722;2023-11-19T14:17:04;18.00;26.80
80212;DHT22;70434;37.956;23.722;2023-11-19T14:19:29;18.10;25.40
80212;DHT22;70434;37.956;23.722;2023-11-19T14:21:55;18.00;25.70
80212;DHT22;70434;37.956;23.722;2023-11-19T14:24:21;18.10;25.90
80212;DHT22;70434;37.956;23.722;2023-11-19T14:26:47;18.10;25.60
80212;DHT22;70434;37.956;23.722;2023-11-19T14:29:14;17.70;26.00
80212;DHT22;70434;37.956;23.722;2023-11-19T14:31:40;17.60;26.30
80212;DHT22;70434;37.956;23.722;2023-11-19T14:34:05;17.70;26.40
80212;DHT22;70434;37.956;23.722;2023-11-19T14:36:31;17.70;26.20
80212;DHT22;70434;37.956;23.722;2023-11-19T14:38:57;17.60;25.80
80212;DHT22;70434;37.956;23.722;2023-11-19T14:41:24;17.70;26.20
80212;DHT22;70434;37.956;23.722;2023-11-19T14:43:50;17.70;26.00
80212;DHT22;70434;37.956;23.722;2023-11-19T14:46:16;17.70;26.30
80212;DHT22;70434;37.956;23.722;2023-11-19T14:48:41;17.50;26.20
80212;DHT22;70434;37.956;23.722;2023-11-19T14:51:09;17.30;27.50
80212;DHT22;70434;37.956;23.722;2023-11-19T14:53:35;17.30;26.70
80212;DHT22;70434;37.956;23.722;2023-11-19T14:56:01;17.30;26.60
80212;DHT22;70434;37.956;23.722;2023-11-19T14:58:27;17.10;26.60
80212;DHT22;70434;37.956;23.722;2023-11-19T15:00:53;16.80;27.00
80212;DHT22;70434;37.956;23.722;2023-11-19T15:03:19;16.50;27.20
80212;DHT22;70434;37.956;23.722;2023-11-19T15:05:48;16.20;27.50
80212;DHT22;70434;37.956;23.722;2023-11-19T15:08:14;16.20;27.80
80212;DHT22;70434;37.956;23.722;2023-11-19T15:10:42;16.20;27.70
80212;DHT22;70434;37.956;23.722;2023-11-19T15:13:10;16.30;27.40
80212;DHT22;70434;37.956;23.722;2023-11-19T15:15:36;16.40;27.40
80212;DHT22;70434;37.956;23.722;2023-11-19T15:18:01;16.50;27.40
80212;DHT22;70434;37.956;23.722;2023-11-19T15:20:27;16.60;27.20
80212;DHT22;70434;37.956;23.722;2023-11-19T15:22:58;16.50;27.90
80212;DHT22;70434;37.956;23.722;2023-11-19T15:25:24;16.40;27.30
80212;DHT22;70434;37.956;23.722;2023-11-19T15:27:50;16.40;27.50
80212;DHT22;70434;37.956;23.722;2023-11-19T15:30:16;16.40;27.50
80212;DHT22;70434;37.956;23.722;2023-11-19T15:32:42;16.40;27.70
80212;DHT22;70434;37.956;23.722;2023-11-19T15:35:09;16.40;27.90
80212;DHT22;70434;37.956;23.722;2023-11-19T15:37:38;16.50;27.90
80212;DHT22;70434;37.956;23.722;2023-11-19T15:40:06;16.50;27.90
80212;DHT22;70434;37.956;23.722;2023-11-19T15:42:36;16.60;27.80
80212;DHT22;70434;37.956;23.722;2023-11-19T15:45:02;16.60;28.00
80212;DHT22;70434;37.956;23.722;2023-11-19T15:47:33;16.60;27.80
80212;DHT22;70434;37.956;23.722;2023-11-19T15:50:01;16.60;27.80
80212;DHT22;70434;37.956;23.722;2023-11-19T15:52:27;16.60;27.80
80212;DHT22;70434;37.956;23.722;2023-11-19T15:54:55;16.70;27.70
80212;DHT22;70434;37.956;23.722;2023-11-19T15:57:21;16.60;27.80
80212;DHT22;70434;37.956;23.722;2023-11-19T15:59:47;16.60;28.00
80212;DHT22;70434;37.956;23.722;2023-11-19T16:02:17;16.60;27.90
80212;DHT22;70434;37.956;23.722;2023-11-19T16:04:42;16.60;27.90
80212;DHT22;70434;37.956;23.722;2023-11-19T16:07:16;16.60;27.70
80212;DHT22;70434;37.956;23.722;2023-11-19T16:09:42;16.50;27.60
80212;DHT22;70434;37.956;23.722;2023-11-19T16:12:08;16.50;27.80
80212;DHT22;70434;37.956;23.722;2023-11-19T16:14:34;16.60;27.60
80212;DHT22;70434;37.956;23.722;2023-11-19T16:17:00;16.60;27.60
80212;DHT22;70434;37.956;23.722;2023-11-19T16:19:26;16.60;27.70
80212;DHT22;70434;37.956;23.722;2023-11-19T16:21:52;16.60;27.70
80212;DHT22;70434;37.956;23.722;2023-11-19T16:24:18;16.40;27.50
80212;DHT22;70434;37.956;23.722;2023-11-19T16:26:44;16.40;27.80
80212;DHT22;70434;37.956;23.722;2023-11-19T16:29:10;16.50;27.90
80212;DHT22;70434;37.956;23.722;2023-11-19T16:31:36;16.50;28.10
80212;DHT22;70434;37.956;23.722;2023-11-19T16:34:02;16.50;27.70
80212;DHT22;70434;37.956;23.722;2023-11-19T16:36:30;16.60;27.50
80212;DHT22;70434;37.956;23.722;2023-11-19T16:38:56;16.60;27.60
80212;DHT22;70434;37.956;23.722;2023-11-19T16:41:22;16.50;27.40
80212;DHT22;70434;37.956;23.722;2023-11-19T16:43:49;16.50;27.70
80212;DHT22;70434;37.956;23.722;2023-11-19T16:46:16;16.50;28.10
80212;DHT22;70434;37.956;23.722;2023-11-19T16:48:45;16.40;27.50
80212;DHT22;70434;37.956;23.722;2023-11-19T16:51:14;16.50;27.80
80212;DHT22;70434;37.956;23.722;2023-11-19T16:53:45;16.50;27.90
80212;DHT22;70434;37.956;23.722;2023-11-19T16:56:12;16.50;27.70
80212;DHT22;70434;37.956;23.722;2023-11-19T16:58:38;16.50;28.10
80212;DHT22;70434;37.956;23.722;2023-11-19T17:01:04;16.50;28.40
80212;DHT22;70434;37.956;23.722;2023-11-19T17:03:30;16.60;28.60
80212;DHT22;70434;37.956;23.722;2023-11-19T17:05:55;16.50;28.60
80212;DHT22;70434;37.956;23.722;2023-11-19T17:08:22;16.50;28.60
80212;DHT22;70434;37.956;23.722;2023-11-19T17:10:48;16.60;28.50
80212;DHT22;70434;37.956;23.722;2023-11-19T17:13:14;16.60;28.40
80212;DHT22;70434;37.956;23.722;2023-11-19T17:15:40;16.60;28.30
80212;DHT22;70434;37.956;23.722;2023-11-19T17:18:06;16.60;28.20
80212;DHT22;70434;37.956;23.722;2023-11-19T17:20:31;16.60;28.50
80212;DHT22;70434;37.956;23.722;2023-11-19T17:22:57;16.60;28.70
80212;DHT22;70434;37.956;23.722;2023-11-19T17:25:23;16.50;28.40
80212;DHT22;70434;37.956;23.722;2023-11-19T17:27:49;16.50;28.50
80212;DHT22;70434;37.956;23.722;2023-11-19T17:30:15;16.50;28.70
80212;DHT22;70434;37.956;23.722;2023-11-19T17:32:41;16.50;28.90
80212;DHT22;70434;37.956;23.722;2023-11-19T17:35:07;16.50;29.00
80212;DHT22;70434;37.956;23.722;2023-11-19T17:37:34;16.40;29.20
80212;DHT22;70434;37.956;23.722;2023-11-19T17:39:59;16.40;29.40
80212;DHT22;70434;37.956;23.722;2023-11-19T17:42:25;16.40;29.60
80212;DHT22;70434;37.956;23.722;2023-11-19T17:44:51;16.40;29.40
80212;DHT22;70434;37.956;23.722;2023-11-19T17:47:18;16.40;29.30
80212;DHT22;70434;37.956;23.722;2023-11-19T17:49:46;16.40;29.10
80212;DHT22;70434;37.956;23.722;2023-11-19T17:52:12;16.40;29.00
80212;DHT22;70434;37.956;23.722;2023-11-19T17:54:38;16.40;29.10
80212;DHT22;70434;37.956;23.722;2023-11-19T17:57:04;16.40;29.30
80212;DHT22;70434;37.956;23.722;2023-11-19T17:59:30;16.40;29.40
80212;DHT22;70434;37.956;23.722;2023-11-19T18:01:57;16.40;29.50
80212;DHT22;70434;37.956;23.722;2023-11-19T18:04:26;16.30;29.70
80212;DHT22;70434;37.956;23.722;2023-11-19T18:06:52;16.30;29.80
80212;DHT22;70434;37.956;23.722;2023-11-19T18:09:18;16.30;29.70
80212;DHT22;70434;37.956;23.722;2023-11-19T18:11:44;16.30;30.00
80212;DHT22;70434;37.956;23.722;2023-11-19T18:14:13;16.30;30.40
80212;DHT22;70434;37.956;23.722;2023-11-19T18:16:39;16.30;31.20
80212;DHT22;70434;37.956;23.722;2023-11-19T18:19:05;16.30;30.00
80212;DHT22;70434;37.956;23.722;2023-11-19T18:21:32;16.30;29.70
80212;DHT22;70434;37.956;23.722;2023-11-19T18:23:58;16.30;30.00
80212;DHT22;70434;37.956;23.722;2023-11-19T18:26:24;16.20;30.50
80212;DHT22;70434;37.956;23.722;2023-11-19T18:28:50;16.30;31.50